Time;durP1;ratioP1;P1;durP2;ratioP2;P2;SDS_P1;SDS_P2;PMS_P1;PMS_P2;Temp;Humidity;BMP_temperature;BMP_pressure;BME280_temperature;BME280_humidity;BME280_pressure;Samples;Min_cycle;Max_cycle;Signal;HPM_P1;HPM_P2
2023/12/15 00:00:58;;;;;;;0.63;0.63;;;;;;;-144.30;95.83;86398.50;5109960;28;20199;-60
2023/12/15 00:03:27;;;;;;;0.47;0.47;;;;;;;-144.30;95.67;86426.34;5109863;28;20198;-59
2023/12/15 00:05:54;;;;;;;1.17;1.07;;;;;;;-144.30;95.89;86460.16;5112084;28;20217;-59
2023/12/15 00:08:21;;;;;;;1.03;0.97;;;;;;;-144.30;96.00;86432.31;5113978;28;20190;-59
2023/12/15 00:10:48;;;;;;;0.60;0.60;;;;;;;-144.30;96.27;86426.34;5113718;28;20190;-52
2023/12/15 00:13:15;;;;;;;0.80;0.80;;;;;;;-144.30;96.33;86442.25;5113477;28;20194;-59
2023/12/15 00:15:42;;;;;;;0.77;0.77;;;;;;;-144.30;96.42;86430.31;5113842;28;20201;-52
2023/12/15 00:18:09;;;;;;;0.97;0.83;;;;;;;-144.30;96.26;86410.44;5113486;28;20579;-51
2023/12/15 00:20:37;;;;;;;0.90;0.90;;;;;;;-144.30;96.49;86434.28;5113576;28;20201;-59
2023/12/15 00:23:04;;;;;;;0.80;0.80;;;;;;;-144.30;96.14;86464.13;5113641;28;20216;-61
2023/12/15 00:25:31;;;;;;;0.47;0.47;;;;;;;-144.30;95.91;86402.47;5113621;28;20201;-53
2023/12/15 00:27:58;;;;;;;0.53;0.53;;;;;;;-144.30;95.91;86484.00;5113058;28;20281;-59
2023/12/15 00:30:25;;;;;;;0.50;0.50;;;;;;;-144.30;95.56;86406.44;5113312;28;20191;-58
2023/12/15 00:32:52;;;;;;;2.23;0.60;;;;;;;-144.30;95.73;86458.16;5113498;28;20226;-60
2023/12/15 00:35:19;;;;;;;0.83;0.50;;;;;;;-144.30;95.79;86489.97;5113269;28;20202;-59
2023/12/15 00:37:47;;;;;;;0.60;0.50;;;;;;;-144.30;95.83;86462.13;5113390;28;20220;-60
2023/12/15 00:40:14;;;;;;;0.50;0.50;;;;;;;-144.30;95.39;86460.16;5113324;28;20722;-62
2023/12/15 00:42:41;;;;;;;1.43;0.60;;;;;;;-144.30;95.01;86412.41;5113235;28;20282;-52
2023/12/15 00:45:09;;;;;;;0.57;0.57;;;;;;;-144.30;94.79;86436.28;5113113;28;20216;-59
2023/12/15 00:47:36;;;;;;;0.50;0.50;;;;;;;-144.30;94.75;86436.28;5113048;28;20202;-60
2023/12/15 00:50:05;;;;;;;0.70;0.70;;;;;;;-144.30;94.36;86434.28;5112896;28;20661;-52
2023/12/15 00:52:31;;;;;;;0.20;0.20;;;;;;;-144.30;94.50;86422.38;5112727;28;20237;-51
2023/12/15 00:55:00;;;;;;;0.77;0.70;;;;;;;-144.30;94.72;86426.34;5112832;28;20195;-61
2023/12/15 00:57:27;;;;;;;1.13;0.47;;;;;;;-144.30;94.91;86480.03;5112837;27;20190;-58
2023/12/15 00:59:54;;;;;;;1.10;0.53;;;;;;;-144.30;94.78;86446.22;5112781;28;20198;-59
2023/12/15 01:02:20;;;;;;;0.70;0.67;;;;;;;-144.30;94.37;86418.38;5112695;28;20194;-60
2023/12/15 01:04:47;;;;;;;3.67;0.70;;;;;;;-144.30;94.31;86440.25;5113084;28;20194;-53
2023/12/15 01:07:14;;;;;;;0.60;0.60;;;;;;;-144.30;94.45;86434.28;5112608;28;20201;-52
2023/12/15 01:09:41;;;;;;;0.40;0.40;;;;;;;-144.30;94.32;86442.25;5112505;28;20198;-58
2023/12/15 01:12:10;;;;;;;1.07;0.80;;;;;;;-144.30;94.38;86470.09;5112456;28;20271;-54
2023/12/15 01:14:36;;;;;;;1.83;0.70;;;;;;;-144.30;94.60;86489.97;5112976;28;20221;-53
2023/12/15 01:17:04;;;;;;;1.03;0.90;;;;;;;-144.30;94.33;86406.44;5111901;28;20203;-53
2023/12/15 01:19:31;;;;;;;0.67;0.67;;;;;;;-144.30;94.55;86434.28;5112306;28;20218;-52
2023/12/15 01:21:58;;;;;;;0.70;0.70;;;;;;;-144.30;94.50;86430.31;5112493;28;20571;-59
2023/12/15 01:24:24;;;;;;;0.97;0.50;;;;;;;-144.30;94.58;86402.47;5111951;28;20285;-59
2023/12/15 01:26:52;;;;;;;0.83;0.73;;;;;;;-144.30;94.37;86448.22;5112334;28;20195;-54
2023/12/15 01:29:20;;;;;;;0.50;0.50;;;;;;;-144.30;94.24;86422.38;5111997;28;20376;-59
2023/12/15 01:31:47;;;;;;;0.40;0.40;;;;;;;-144.30;93.82;86438.28;5112443;28;20204;-52
2023/12/15 01:34:14;;;;;;;0.50;0.50;;;;;;;-144.30;94.25;86450.19;5111979;27;20194;-52
2023/12/15 01:36:41;;;;;;;2.10;0.73;;;;;;;-144.30;94.42;86406.44;5112074;28;20209;-54
2023/12/15 01:39:08;;;;;;;0.50;0.50;;;;;;;-144.30;94.54;86418.38;5112318;28;20229;-56
2023/12/15 01:41:35;;;;;;;0.53;0.37;;;;;;;-144.30;94.79;86434.28;5111869;28;20234;-59
2023/12/15 01:44:02;;;;;;;0.60;0.60;;;;;;;-144.30;94.33;86472.06;5112303;28;20574;-59
2023/12/15 01:46:30;;;;;;;0.50;0.50;;;;;;;-144.30;94.67;86376.63;5112042;28;20614;-53
2023/12/15 01:48:58;;;;;;;0.53;0.40;;;;;;;-144.30;94.34;86460.16;5112104;28;20187;-60
2023/12/15 01:51:25;;;;;;;0.40;0.40;;;;;;;-144.30;94.51;86426.34;5111566;28;20285;-60
2023/12/15 01:53:52;;;;;;;0.63;0.63;;;;;;;-144.30;94.67;86430.31;5112180;28;20225;-60
2023/12/15 01:56:19;;;;;;;1.97;0.50;;;;;;;-144.30;94.31;86476.06;5111903;28;20201;-59
2023/12/15 01:58:46;;;;;;;0.40;0.40;;;;;;;-144.30;94.70;86446.22;5111631;27;20225;-60
2023/12/15 02:01:13;;;;;;;0.60;0.57;;;;;;;-144.30;94.62;86456.16;5111733;28;20580;-61
2023/12/15 02:03:41;;;;;;;0.27;0.27;;;;;;;-144.30;94.50;86436.28;5111572;28;20729;-53
2023/12/15 02:06:08;;;;;;;0.83;0.40;;;;;;;-144.30;94.46;86408.44;5111444;28;20197;-60
2023/12/15 02:08:35;;;;;;;0.30;0.30;;;;;;;-144.30;94.53;86438.28;5111828;28;20187;-59
2023/12/15 02:11:02;;;;;;;0.50;0.50;;;;;;;-144.30;94.38;86412.41;5111569;28;20198;-59
2023/12/15 02:13:30;;;;;;;0.40;0.40;;;;;;;-144.30;94.31;86480.03;5111505;28;20190;-60
2023/12/15 02:15:56;;;;;;;5.33;0.50;;;;;;;-144.30;94.52;86456.16;5111666;28;20662;-53
2023/12/15 02:18:23;;;;;;;0.80;0.40;;;;;;;-144.30;94.49;86456.16;5111152;28;20826;-52
2023/12/15 02:20:52;;;;;;;0.70;0.50;;;;;;;-144.30;95.10;86454.19;5111419;28;20197;-59
2023/12/15 02:23:20;;;;;;;1.57;0.80;;;;;;;-144.30;94.63;86426.34;5110989;28;20198;-59
2023/12/15 02:25:47;;;;;;;0.67;0.53;;;;;;;-144.30;94.72;86432.31;5111437;28;20194;-60
2023/12/15 02:28:14;;;;;;;0.50;0.50;;;;;;;-144.30;95.22;86384.59;5110024;28;20198;-51
2023/12/15 02:30:41;;;;;;;0.53;0.53;;;;;;;-144.30;94.95;86726.63;5111275;28;20587;-52
2023/12/15 02:33:08;;;;;;;0.47;0.47;;;;;;;-144.30;95.21;86446.22;5110753;28;20195;-52
2023/12/15 02:35:35;;;;;;;0.73;0.73;;;;;;;-144.30;95.95;86183.75;5111237;28;20195;-52
2023/12/15 02:38:07;;;;;;;0.40;0.40;;;;;;;-144.30;95.69;86432.31;5111016;28;20202;-52
2023/12/15 02:40:35;;;;;;;1.43;0.50;;;;;;;-144.30;96.13;86434.28;5110750;28;20230;-52
2023/12/15 02:43:02;;;;;;;0.40;0.40;;;;;;;-144.30;96.18;86458.16;5110929;28;20194;-53
2023/12/15 02:45:29;;;;;;;0.33;0.33;;;;;;;-144.30;96.10;86422.38;5110637;28;20198;-59
2023/12/15 02:47:56;;;;;;;2.00;0.80;;;;;;;-144.30;96.02;86454.19;5110788;28;20210;-60
2023/12/15 02:50:23;;;;;;;0.53;0.53;;;;;;;-144.30;96.41;86462.13;5110898;28;20589;-59
2023/12/15 02:52:50;;;;;;;0.53;0.53;;;;;;;-144.30;96.38;86448.22;5110759;28;20285;-61
2023/12/15 02:55:17;;;;;;;2.30;0.50;;;;;;;-144.30;96.08;86452.19;5110702;28;20563;-60
2023/12/15 02:57:45;;;;;;;0.50;0.50;;;;;;;-144.30;96.08;86458.16;5110599;28;20248;-61
2023/12/15 03:00:14;;;;;;;0.50;0.50;;;;;;;-144.30;95.98;86493.94;5110224;28;20218;-60
2023/12/15 03:02:41;;;;;;;0.90;0.47;;;;;;;-144.30;96.05;86454.19;5110580;28;20198;-59
2023/12/15 03:05:08;;;;;;;0.83;0.40;;;;;;;-144.30;96.04;86446.22;5110270;28;20191;-59
2023/12/15 03:07:35;;;;;;;0.50;0.43;;;;;;;-144.30;96.27;86424.34;5110500;28;20219;-59
2023/12/15 03:10:02;;;;;;;0.30;0.30;;;;;;;-144.30;95.64;86438.28;5110363;28;20201;-60
2023/12/15 03:12:30;;;;;;;0.70;0.70;;;;;;;-144.30;95.64;86438.28;5110021;28;20281;-59
2023/12/15 03:14:58;;;;;;;1.27;0.60;;;;;;;-144.30;95.45;86480.03;5110900;28;20694;-60
2023/12/15 03:17:25;;;;;;;0.60;0.60;;;;;;;-144.30;95.38;86368.66;5110547;27;20243;-52
2023/12/15 03:19:52;;;;;;;0.90;0.70;;;;;;;-144.30;95.52;86422.38;5110179;28;20224;-60
2023/12/15 03:22:19;;;;;;;0.37;0.37;;;;;;;-144.30;95.71;86430.31;5110045;28;20213;-59
2023/12/15 03:24:46;;;;;;;0.77;0.77;;;;;;;-144.30;95.39;86436.28;5110259;28;20555;-59
2023/12/15 03:27:13;;;;;;;1.03;0.53;;;;;;;-144.30;95.18;86484.00;5109921;28;20286;-59
2023/12/15 03:29:40;;;;;;;0.90;0.90;;;;;;;-144.30;95.25;86422.38;5109781;28;20221;-51
2023/12/15 03:32:08;;;;;;;0.70;0.70;;;;;;;-144.30;95.29;86470.09;5110311;28;20670;-52
2023/12/15 03:34:35;;;;;;;0.57;0.57;;;;;;;-144.30;95.59;86416.41;5110275;28;20285;-52
2023/12/15 03:37:02;;;;;;;2.63;0.90;;;;;;;-144.30;95.60;86410.44;5110283;28;20216;-52
2023/12/15 03:39:29;;;;;;;1.50;0.60;;;;;;;-144.30;96.67;86418.38;5109701;28;20301;-59
2023/12/15 03:41:56;;;;;;;0.90;0.90;;;;;;;-144.30;97.03;86458.16;5109965;28;20564;-51
2023/12/15 03:44:23;;;;;;;0.50;0.50;;;;;;;-144.30;97.58;86458.16;5109900;28;20282;-52
2023/12/15 03:46:50;;;;;;;0.50;0.50;;;;;;;-144.30;97.70;86434.28;5110173;28;20294;-60
2023/12/15 03:49:18;;;;;;;3.20;0.67;;;;;;;-144.30;97.57;86396.50;5109904;28;20194;-59
2023/12/15 03:51:45;;;;;;;0.53;0.50;;;;;;;-144.30;98.18;86462.13;5109975;28;20194;-59
2023/12/15 03:54:12;;;;;;;0.53;0.50;;;;;;;-144.30;99.58;86456.16;5109556;28;20226;-59
2023/12/15 03:56:39;;;;;;;0.73;0.60;;;;;;;-144.30;99.93;86416.41;5110041;28;20198;-52
2023/12/15 03:59:06;;;;;;;0.60;0.60;;;;;;;-144.30;100.00;86486.00;5110113;28;20218;-59
2023/12/15 04:01:35;;;;;;;0.60;0.60;;;;;;;-144.30;100.00;86458.16;5109715;28;20271;-52
2023/12/15 04:04:02;;;;;;;0.57;0.57;;;;;;;-144.30;100.00;86452.19;5109872;28;20289;-60
2023/12/15 04:06:30;;;;;;;0.80;0.80;;;;;;;-144.30;100.00;86452.19;5109912;28;20205;-54
2023/12/15 04:08:57;;;;;;;0.70;0.70;;;;;;;-144.30;100.00;86456.16;5109887;28;20230;-53
2023/12/15 04:11:24;;;;;;;0.93;0.73;;;;;;;-144.30;100.00;86434.28;5109347;28;20196;-59
2023/12/15 04:13:50;;;;;;;0.77;0.77;;;;;;;-144.30;100.00;86486.00;5110257;28;20201;-59
2023/12/15 04:16:17;;;;;;;0.83;0.83;;;;;;;-144.30;100.00;86474.06;5109771;28;20209;-60
2023/12/15 04:18:44;;;;;;;2.33;0.80;;;;;;;-144.30;100.00;86450.19;5110193;28;20335;-60
2023/12/15 04:21:11;;;;;;;1.57;1.47;;;;;;;-144.30;100.00;86486.00;5109428;28;20281;-59
2023/12/15 04:23:39;;;;;;;1.20;1.10;;;;;;;-144.30;100.00;86476.06;5109375;28;20206;-59
2023/12/15 04:26:07;;;;;;;1.67;1.03;;;;;;;-144.30;100.00;86462.13;5105570;28;20207;-59
2023/12/15 04:28:34;;;;;;;1.33;1.17;;;;;;;-144.30;100.00;86470.09;5109328;28;20667;-59
2023/12/15 04:31:01;;;;;;;1.60;1.50;;;;;;;-144.30;100.00;86456.16;5109459;28;20199;-59
2023/12/15 04:33:28;;;;;;;1.70;1.30;;;;;;;-144.30;100.00;86509.84;5109125;28;20278;-59
2023/12/15 04:35:55;;;;;;;1.83;1.73;;;;;;;-144.30;100.00;86468.09;5109525;28;20297;-59
2023/12/15 04:38:22;;;;;;;2.10;1.23;;;;;;;-144.30;100.00;86466.09;5108981;28;20201;-59
2023/12/15 04:40:50;;;;;;;1.43;1.33;;;;;;;-144.30;100.00;86462.13;5108475;28;20229;-59
2023/12/15 04:43:17;;;;;;;1.20;1.20;;;;;;;-144.30;100.00;86474.06;5109021;28;20199;-58
2023/12/15 04:45:44;;;;;;;1.20;1.10;;;;;;;-144.30;100.00;86509.84;5109176;28;20289;-59
2023/12/15 04:48:11;;;;;;;1.60;1.20;;;;;;;-144.30;100.00;86460.16;5109197;28;20739;-55
2023/12/15 04:50:40;;;;;;;1.33;1.13;;;;;;;-144.30;100.00;86478.03;5109146;28;20195;-56
2023/12/15 04:53:07;;;;;;;2.10;1.30;;;;;;;-144.30;100.00;86484.00;5112816;28;20244;-60
2023/12/15 04:55:34;;;;;;;2.07;1.10;;;;;;;-144.30;100.00;86414.41;5112603;28;20579;-53
2023/12/15 04:58:02;;;;;;;79.40;16.90;;;;;;;-144.30;100.00;86470.09;5113165;28;20559;-53
2023/12/15 05:00:29;;;;;;;3.40;1.87;;;;;;;-144.30;100.00;86486.00;5112485;28;20253;-59
2023/12/15 05:02:56;;;;;;;1.73;1.53;;;;;;;-144.30;100.00;86454.19;5113066;28;20289;-52
2023/12/15 05:05:23;;;;;;;1.90;1.50;;;;;;;-144.30;100.00;86456.16;5112611;28;20670;-52
2023/12/15 05:07:50;;;;;;;3.47;1.40;;;;;;;-144.30;100.00;86420.38;5112995;28;20201;-60
2023/12/15 05:10:17;;;;;;;1.10;1.10;;;;;;;-144.30;100.00;86458.16;5111124;28;20229;-59
2023/12/15 05:12:44;;;;;;;2.30;1.73;;;;;;;-144.30;100.00;86438.28;5112411;28;20197;-52
2023/12/15 05:15:12;;;;;;;1.43;1.33;;;;;;;-144.30;100.00;86458.16;5112583;28;20201;-52
2023/12/15 05:17:39;;;;;;;1.80;1.40;;;;;;;-144.30;100.00;86497.94;5112270;28;20280;-50
2023/12/15 05:20:08;;;;;;;1.13;1.10;;;;;;;-144.30;100.00;86474.06;5113160;28;20722;-59
2023/12/15 05:22:35;;;;;;;1.47;1.37;;;;;;;-144.30;100.00;86464.13;5112134;28;20755;-59
2023/12/15 05:25:02;;;;;;;1.77;1.40;;;;;;;-144.30;100.00;86466.09;5112655;28;20293;-59
2023/12/15 05:27:29;;;;;;;1.97;1.47;;;;;;;-144.30;100.00;86493.94;5112062;28;20623;-60
2023/12/15 05:29:56;;;;;;;4.30;1.50;;;;;;;-144.30;100.00;86430.31;5112478;28;20651;-63
2023/12/15 05:32:24;;;;;;;1.60;1.50;;;;;;;-144.30;100.00;86456.16;5111932;28;20199;-60
2023/12/15 05:34:51;;;;;;;1.50;1.40;;;;;;;-144.30;100.00;86489.97;5112267;28;20204;-51
2023/12/15 05:37:18;;;;;;;1.63;1.53;;;;;;;-144.30;100.00;86509.84;5112044;28;20290;-52
2023/12/15 05:39:45;;;;;;;2.10;1.90;;;;;;;-144.30;100.00;86456.16;5112074;28;20320;-51
2023/12/15 05:42:12;;;;;;;3.60;2.03;;;;;;;-144.30;100.00;86499.91;5111754;28;20226;-59
2023/12/15 05:44:41;;;;;;;2.57;2.33;;;;;;;-144.30;100.00;86489.97;5112511;28;20207;-59
2023/12/15 05:47:08;;;;;;;2.30;2.10;;;;;;;-144.30;100.00;86511.84;5112116;28;20209;-60
2023/12/15 05:49:39;;;;;;;1.80;1.70;;;;;;;-144.30;100.00;86466.09;5112356;28;20598;-53
2023/12/15 05:52:08;;;;;;;1.93;1.83;;;;;;;-144.30;100.00;86533.72;5112122;28;20191;-52
2023/12/15 05:54:35;;;;;;;1.97;1.87;;;;;;;-144.30;100.00;86513.84;5112102;28;20247;-51
2023/12/15 05:57:01;;;;;;;3.17;2.03;;;;;;;-144.30;100.00;86478.03;5112034;28;20253;-51
2023/12/15 05:59:28;;;;;;;2.13;2.00;;;;;;;-144.30;100.00;86501.91;5111556;28;20789;-59
2023/12/15 06:01:55;;;;;;;2.27;1.97;;;;;;;-144.30;100.00;86462.13;5111691;28;20197;-59
2023/12/15 06:04:22;;;;;;;2.10;1.77;;;;;;;-144.30;100.00;86509.84;5111697;28;20201;-52
2023/12/15 06:06:51;;;;;;;1.93;1.60;;;;;;;-144.30;100.00;86486.00;5111657;28;20391;-53
2023/12/15 06:09:18;;;;;;;2.10;1.90;;;;;;;-144.30;100.00;86533.72;5111371;28;20277;-51
2023/12/15 06:11:45;;;;;;;1.70;1.60;;;;;;;-144.30;100.00;86480.03;5111420;28;20202;-53
2023/12/15 06:14:12;;;;;;;2.17;1.73;;;;;;;-144.30;100.00;86545.66;5111145;28;20227;-51
2023/12/15 06:16:39;;;;;;;1.80;1.70;;;;;;;-144.30;100.00;86507.88;5111673;28;20199;-53
2023/12/15 06:19:06;;;;;;;2.63;2.00;;;;;;;-144.30;100.00;86505.88;5111414;28;20198;-52
2023/12/15 06:21:33;;;;;;;1.70;1.60;;;;;;;-144.30;100.00;86493.94;5111236;28;20201;-52
2023/12/15 06:24:01;;;;;;;2.63;2.43;;;;;;;-144.30;100.00;86487.97;5111279;28;20654;-53
2023/12/15 06:26:28;;;;;;;4.03;2.30;;;;;;;-144.30;100.00;86474.06;5110994;28;20198;-53
2023/12/15 06:28:55;;;;;;;3.43;2.23;;;;;;;-144.30;100.00;86466.09;5111384;28;20705;-54
2023/12/15 06:31:25;;;;;;;3.33;1.73;;;;;;;-144.30;100.00;86456.16;5111165;28;20718;-60
2023/12/15 06:33:52;;;;;;;3.77;1.90;;;;;;;-144.30;100.00;86470.09;5111148;28;20625;-59
2023/12/15 06:36:19;;;;;;;2.47;2.27;;;;;;;-144.30;100.00;86489.97;5110922;28;20274;-53
2023/12/15 06:38:46;;;;;;;2.67;2.20;;;;;;;-144.30;100.00;86509.84;5110866;28;20287;-59
2023/12/15 06:41:15;;;;;;;3.53;2.00;;;;;;;-144.30;100.00;86561.56;5110554;28;20736;-59
2023/12/15 06:43:42;;;;;;;5.50;2.67;;;;;;;-144.30;100.00;86517.81;5111225;28;20205;-59
2023/12/15 06:46:10;;;;;;;4.50;2.57;;;;;;;-144.30;100.00;86523.78;5111221;28;20639;-54
2023/12/15 06:48:38;;;;;;;3.27;2.63;;;;;;;-144.30;100.00;86493.94;5110739;28;20190;-54
2023/12/15 06:51:07;;;;;;;3.43;2.90;;;;;;;-144.30;100.00;86497.94;5110725;28;20282;-54
2023/12/15 06:53:34;;;;;;;3.20;2.80;;;;;;;-144.30;100.00;86486.00;5109393;28;20634;-55
2023/12/15 06:56:01;;;;;;;3.63;2.77;;;;;;;-144.30;100.00;86487.97;5108287;28;20681;-55
2023/12/15 06:58:30;;;;;;;3.63;3.27;;;;;;;-144.30;100.00;86505.88;5110057;28;20198;-54
2023/12/15 07:00:57;;;;;;;2.83;2.50;;;;;;;-144.30;100.00;86466.09;5110196;28;20271;-53
2023/12/15 07:03:24;;;;;;;3.20;2.87;;;;;;;-144.30;100.00;86468.09;5109921;28;20678;-55
2023/12/15 07:05:51;;;;;;;4.27;2.90;;;;;;;-144.30;100.00;86460.16;5120683;27;20202;-53
2023/12/15 07:08:18;;;;;;;3.87;2.70;;;;;;;-144.30;100.00;86545.66;5108092;28;20199;-54
2023/12/15 07:10:45;;;;;;;6.40;2.90;;;;;;;-144.30;100.00;86466.09;5101705;28;20212;-54
2023/12/15 07:13:12;;;;;;;4.80;3.50;;;;;;;-144.30;100.00;86454.19;5110339;28;20241;-60
2023/12/15 07:15:40;;;;;;;4.47;3.57;;;;;;;-144.30;100.00;86450.19;5109853;28;20198;-60
2023/12/15 07:18:07;;;;;;;5.03;3.40;;;;;;;-144.30;100.00;86454.19;5110090;28;20194;-59
2023/12/15 07:20:34;;;;;;;3.77;3.07;;;;;;;-144.30;100.00;86478.03;5109334;28;20218;-59
2023/12/15 07:23:02;;;;;;;4.10;3.07;;;;;;;-144.30;100.00;86450.19;5109924;28;20293;-59
2023/12/15 07:25:29;;;;;;;2.87;2.67;;;;;;;-144.30;100.00;86446.22;5109238;28;20281;-60
2023/12/15 07:27:55;;;;;;;3.73;3.20;;;;;;;-144.30;100.00;86458.16;5109999;28;20282;-59
2023/12/15 07:30:22;;;;;;;5.37;3.70;;;;;;;-144.30;100.00;86497.94;5109797;28;20200;-59
2023/12/15 07:32:51;;;;;;;4.50;3.57;;;;;;;-144.30;100.00;86470.09;5109909;28;20202;-59
2023/12/15 07:35:18;;;;;;;3.83;3.50;;;;;;;-144.30;100.00;86503.91;5109725;28;20222;-58
2023/12/15 07:37:45;;;;;;;4.57;4.13;;;;;;;-144.30;100.00;86495.94;5110082;28;20443;-54
2023/12/15 07:40:13;;;;;;;4.27;3.20;;;;;;;-144.30;100.00;86470.09;5109270;28;20218;-54
2023/12/15 07:42:40;;;;;;;4.20;3.37;;;;;;;-144.30;100.00;86468.09;5109870;28;20277;-52
2023/12/15 07:45:08;;;;;;;3.47;3.17;;;;;;;-144.30;100.00;86462.13;5109778;28;20198;-54
2023/12/15 07:47:35;;;;;;;2.90;2.70;;;;;;;-144.30;100.00;86450.19;5109546;28;20202;-59
2023/12/15 07:50:04;;;;;;;2.93;2.73;;;;;;;-144.30;100.00;86458.16;5109886;28;20266;-59
2023/12/15 07:52:31;;;;;;;2.93;2.47;;;;;;;-144.30;100.00;86438.28;5109729;28;20194;-59
2023/12/15 07:54:58;;;;;;;3.40;3.10;;;;;;;-144.30;100.00;86505.88;5108941;28;20205;-59
2023/12/15 07:57:24;;;;;;;4.57;3.33;;;;;;;-144.30;100.00;86462.13;5109612;28;20290;-60
2023/12/15 07:59:51;;;;;;;3.17;2.93;;;;;;;-144.30;100.00;86454.19;5109505;28;20233;-55
2023/12/15 08:02:21;;;;;;;3.77;3.37;;;;;;;-144.30;100.00;86503.91;5109416;28;20476;-53
2023/12/15 08:04:48;;;;;;;4.33;3.80;;;;;;;-144.30;100.00;86466.09;5109640;28;20666;-54
2023/12/15 08:07:16;;;;;;;4.83;4.43;;;;;;;-144.30;100.00;86438.28;5109698;28;20203;-53
2023/12/15 08:09:43;;;;;;;4.67;4.27;;;;;;;-144.30;100.00;86474.06;5108874;28;20282;-54
2023/12/15 08:12:10;;;;;;;5.13;4.50;;;;;;;-144.30;100.00;86470.09;5109756;28;20652;-54
2023/12/15 08:14:37;;;;;;;6.37;4.47;;;;;;;-144.30;100.00;86505.88;5109313;28;20198;-54
2023/12/15 08:17:04;;;;;;;7.97;4.77;;;;;;;-144.30;100.00;86442.25;5109670;28;20221;-54
2023/12/15 08:19:31;;;;;;;5.60;5.00;;;;;;;-144.30;100.00;86482.03;5109670;28;20674;-54
2023/12/15 08:21:59;;;;;;;4.53;4.13;;;;;;;-144.30;100.00;86474.06;5109449;28;20263;-52
2023/12/15 08:24:28;;;;;;;5.03;4.13;;;;;;;-144.30;100.00;86464.13;5108877;28;20202;-54
2023/12/15 08:26:57;;;;;;;5.63;4.43;;;;;;;-144.30;100.00;86454.19;5111449;28;20195;-60
2023/12/15 08:29:24;;;;;;;5.50;5.00;;;;;;;-144.30;100.00;86478.03;5113108;28;20191;-54
2023/12/15 08:31:51;;;;;;;5.20;4.70;;;;;;;-144.30;100.00;86454.19;5113332;28;20282;-54
2023/12/15 08:34:18;;;;;;;4.83;4.33;;;;;;;-144.30;100.00;86486.00;5113284;28;20198;-54
2023/12/15 08:36:45;;;;;;;4.63;4.23;;;;;;;-144.30;100.00;86478.03;5113587;28;20198;-54
2023/12/15 08:39:12;;;;;;;5.27;4.60;;;;;;;-144.30;100.00;86466.09;5112899;28;20707;-54
2023/12/15 08:41:40;;;;;;;5.57;4.87;;;;;;;-144.30;100.00;86525.75;5112958;28;20264;-54
2023/12/15 08:44:07;;;;;;;7.10;4.87;;;;;;;-144.30;100.00;86480.03;5113153;28;20205;-60
2023/12/15 08:46:35;;;;;;;6.43;5.40;;;;;;;-144.30;100.00;86474.06;5113072;27;20214;-59
2023/12/15 08:49:02;;;;;;;6.27;5.30;;;;;;;-144.30;100.00;86505.88;5112985;28;20210;-59
2023/12/15 08:51:29;;;;;;;6.30;4.83;;;;;;;-144.30;100.00;86517.81;5113007;28;20582;-55
2023/12/15 08:53:56;;;;;;;6.47;4.80;;;;;;;-144.30;100.00;86474.06;5112588;28;20709;-54
2023/12/15 08:56:23;;;;;;;8.17;5.10;;;;;;;-144.30;100.00;86464.13;5112631;28;20653;-58
2023/12/15 08:58:51;;;;;;;7.23;5.53;;;;;;;-144.30;100.00;86434.28;5112698;28;20241;-59
2023/12/15 09:01:18;;;;;;;11.30;5.47;;;;;;;-144.30;100.00;86489.97;5112852;28;20233;-54
2023/12/15 09:03:45;;;;;;;6.90;6.07;;;;;;;-144.30;100.00;86493.94;5113440;28;20206;-58
2023/12/15 09:06:12;;;;;;;10.73;6.57;;;;;;;-144.30;100.00;86466.09;5112834;28;20194;-59
2023/12/15 09:08:40;;;;;;;6.27;5.67;;;;;;;-144.30;100.00;86503.91;5112063;28;20289;-59
2023/12/15 09:11:07;;;;;;;8.87;6.07;;;;;;;-144.30;100.00;86497.94;5112494;28;20199;-59
2023/12/15 09:13:35;;;;;;;6.97;5.50;;;;;;;-144.30;100.00;86450.19;5112596;27;20198;-59
2023/12/15 09:16:04;;;;;;;11.30;7.27;;;;;;;-144.30;100.00;86482.03;5112400;28;20285;-60
2023/12/15 09:18:31;;;;;;;9.37;6.53;;;;;;;-144.30;100.00;86499.91;5107524;28;20745;-54
2023/12/15 09:21:00;;;;;;;8.97;6.27;;;;;;;-144.30;100.00;86511.84;5111565;28;20306;-54
2023/12/15 09:23:27;;;;;;;6.07;5.47;;;;;;;-144.30;100.00;86519.81;5112053;28;20739;-55
2023/12/15 09:25:53;;;;;;;6.00;5.03;;;;;;;-144.30;100.00;86521.78;5112044;28;20201;-54
2023/12/15 09:28:20;;;;;;;6.27;4.97;;;;;;;-144.30;100.00;86521.78;5115636;27;20301;-60
2023/12/15 09:30:47;;;;;;;6.73;5.20;;;;;;;-144.30;100.00;86476.06;5120173;27;20204;-59
2023/12/15 09:33:16;;;;;;;5.13;4.63;;;;;;;-144.30;100.00;86501.91;5099136;28;20207;-53
2023/12/15 09:35:43;;;;;;;5.00;4.37;;;;;;;-144.30;100.00;86476.06;5112024;28;20226;-55
2023/12/15 09:38:10;;;;;;;5.87;5.37;;;;;;;-144.30;100.00;86495.94;5111212;28;20705;-54
2023/12/15 09:40:37;;;;;;;5.77;5.27;;;;;;;-144.30;100.00;86499.91;5111523;28;20226;-53
2023/12/15 09:43:04;;;;;;;8.97;4.77;;;;;;;-144.30;100.00;86489.97;5111785;28;20198;-54
2023/12/15 09:45:33;;;;;;;4.77;4.37;;;;;;;-144.30;100.00;86440.25;5111837;28;20666;-54
2023/12/15 09:48:03;;;;;;;4.47;4.17;;;;;;;-144.30;100.00;86472.06;5111339;28;20202;-55
2023/12/15 09:50:34;;;;;;;4.30;4.00;;;;;;;-144.30;100.00;86484.00;5111240;28;20257;-53
2023/12/15 09:53:04;;;;;;;4.87;4.37;;;;;;;-144.30;100.00;86507.88;5111573;28;20210;-54
2023/12/15 09:55:31;;;;;;;5.07;4.43;;;;;;;-144.30;100.00;86495.94;5091180;28;20199;-60
2023/12/15 09:58:00;;;;;;;4.37;3.97;;;;;;;-144.30;100.00;86541.69;5091257;28;20203;-58
2023/12/15 10:00:27;;;;;;;5.20;3.63;;;;;;;-144.30;100.00;86513.84;5091083;28;20201;-59
2023/12/15 10:02:54;;;;;;;5.83;4.50;;;;;;;-144.30;100.00;86476.06;5091421;28;20195;-55
2023/12/15 10:05:22;;;;;;;4.33;3.93;;;;;;;-144.30;100.00;86523.78;5090860;28;20199;-55
2023/12/15 10:07:51;;;;;;;3.80;3.50;;;;;;;-144.30;100.00;86505.88;5091204;28;20199;-54
2023/12/15 10:10:18;;;;;;;3.93;3.53;;;;;;;-144.30;100.00;86509.84;5091233;28;20290;-59
2023/12/15 10:12:45;;;;;;;3.20;2.90;;;;;;;-144.30;100.00;86462.13;5091243;28;20545;-59
2023/12/15 10:15:13;;;;;;;3.70;3.40;;;;;;;-144.30;100.00;86521.78;5110022;28;20283;-59
2023/12/15 10:17:40;;;;;;;3.57;3.30;;;;;;;-144.30;100.00;86529.75;5109964;28;20191;-58
2023/12/15 10:20:09;;;;;;;5.93;4.27;;;;;;;-144.30;100.00;86521.78;5110718;28;20211;-59
2023/12/15 10:22:38;;;;;;;4.43;3.50;;;;;;;-144.30;100.00;86545.66;5110684;28;20656;-59
2023/12/15 10:25:17;;;;;;;3.80;3.40;;;;;;;-144.30;100.00;86515.81;5110866;28;20591;-59
2023/12/15 10:27:44;;;;;;;5.63;3.90;;;;;;;-144.30;100.00;86525.75;5109937;28;20202;-58
2023/12/15 10:30:21;;;;;;;3.00;2.80;;;;;;;-144.30;100.00;86521.78;5111174;28;20198;-59
2023/12/15 10:32:48;;;;;;;3.30;3.00;;;;;;;-144.30;100.00;86493.94;5110507;28;20206;-54
2023/12/15 10:35:15;;;;;;;3.80;2.87;;;;;;;-144.30;100.00;86521.78;5105746;28;20686;-54
2023/12/15 10:37:43;;;;;;;3.30;3.00;;;;;;;-144.30;100.00;86523.78;5108257;28;20195;-58
2023/12/15 10:40:12;;;;;;;26.97;13.87;;;;;;;-144.30;100.00;86523.78;5110089;28;20201;-60
2023/12/15 10:42:41;;;;;;;12.50;7.80;;;;;;;-144.30;100.00;86517.81;5109957;28;20214;-58
2023/12/15 10:45:10;;;;;;;3.70;3.33;;;;;;;-144.30;100.00;86525.75;5110762;28;20194;-61
2023/12/15 10:47:37;;;;;;;5.73;5.13;;;;;;;-144.30;100.00;86539.69;5109834;28;20255;-59
2023/12/15 10:50:07;;;;;;;4.80;3.90;;;;;;;-144.30;100.00;86537.69;5109378;28;20595;-58
2023/12/15 10:52:37;;;;;;;4.30;3.90;;;;;;;-144.30;100.00;86541.69;5109879;28;20197;-59
2023/12/15 10:55:06;;;;;;;14.20;9.03;;;;;;;-144.30;100.00;86533.72;5107757;28;20294;-59
2023/12/15 10:57:33;;;;;;;8.47;6.07;;;;;;;-144.30;100.00;86535.72;5110155;28;20658;-62
2023/12/15 11:00:04;;;;;;;6.03;4.83;;;;;;;-144.30;100.00;86515.81;5110630;28;20194;-59
2023/12/15 11:02:34;;;;;;;5.47;3.70;;;;;;;-144.30;100.00;86579.47;5110291;28;20237;-59
2023/12/15 11:05:02;;;;;;;3.80;3.40;;;;;;;-144.30;100.00;86537.69;5110304;28;20214;-59
2023/12/15 11:07:30;;;;;;;3.40;3.10;;;;;;;-144.30;100.00;86541.69;5109465;28;20197;-59
2023/12/15 11:09:59;;;;;;;3.67;3.23;;;;;;;-144.30;100.00;86259.31;5110389;28;20201;-58
2023/12/15 11:12:30;;;;;;;3.53;3.23;;;;;;;-144.30;100.00;86575.47;5109341;28;20247;-60